createdAt,value
2023-02-06T00:01:18.575Z,2.95
2023-02-06T00:04:19.915Z,2.22
2023-02-06T00:07:21.150Z,3.10
2023-02-06T00:10:22.798Z,2.63
2023-02-06T00:13:24.104Z,3.63
2023-02-06T00:16:26.498Z,1.88
2023-02-06T00:19:27.748Z,2.03
2023-02-06T00:22:28.996Z,2.40
2023-02-06T00:25:30.279Z,3.00
2023-02-06T00:28:31.581Z,2.90
2023-02-06T00:31:32.877Z,1.85
2023-02-06T00:34:34.153Z,2.55
2023-02-06T00:37:35.446Z,2.75
2023-02-06T00:40:36.886Z,2.08
2023-02-06T00:43:38.278Z,2.25
2023-02-06T00:46:39.636Z,2.65
2023-02-06T00:49:40.926Z,2.15
2023-02-06T00:52:42.211Z,2.60
2023-02-06T00:55:43.607Z,2.03
2023-02-06T00:58:44.852Z,2.40
2023-02-06T01:01:46.088Z,1.98
2023-02-06T01:04:47.359Z,2.10
2023-02-06T01:07:48.642Z,2.25
2023-02-06T01:10:49.945Z,2.90
2023-02-06T01:13:51.407Z,2.47
2023-02-06T01:16:52.717Z,2.08
2023-02-06T01:19:54.031Z,3.00
2023-02-06T01:22:55.318Z,2.20
2023-02-06T01:25:56.626Z,2.47
2023-02-06T01:28:57.971Z,2.75
2023-02-06T01:31:59.240Z,2.58
2023-02-06T01:35:00.461Z,1.98
2023-02-06T01:38:01.783Z,3.00
2023-02-06T01:41:03.063Z,2.20
2023-02-06T01:44:10.772Z,2.45
2023-02-06T01:47:12.362Z,2.08
2023-02-06T01:50:13.612Z,2.72
2023-02-06T01:53:16.512Z,2.55
2023-02-06T01:56:19.558Z,2.40
2023-02-06T01:59:21.017Z,2.88
2023-02-06T02:02:25.072Z,2.60
2023-02-06T02:05:26.438Z,2.80
2023-02-06T02:08:31.663Z,2.65
2023-02-06T02:11:37.258Z,2.72
2023-02-06T02:14:39.305Z,2.50
2023-02-06T02:17:40.558Z,2.67
2023-02-06T02:21:00.800Z,2.20
2023-02-06T02:24:25.313Z,2.55
2023-02-06T02:27:32.700Z,2.70
2023-02-06T02:30:51.281Z,3.13
2023-02-06T02:33:52.562Z,3.67
2023-02-06T02:37:03.244Z,2.40
2023-02-06T02:40:22.476Z,2.67
2023-02-06T02:43:35.130Z,2.78
2023-02-06T02:46:38.535Z,2.78
2023-02-06T02:49:41.099Z,2.17
2023-02-06T02:52:42.405Z,2.72
2023-02-06T02:55:43.746Z,2.17
2023-02-06T02:58:46.410Z,2.40
2023-02-06T03:01:50.927Z,2.85
2023-02-06T03:05:00.587Z,3.10
2023-02-06T03:08:07.938Z,2.78
2023-02-06T03:11:13.902Z,2.33
2023-02-06T03:14:18.063Z,2.08
2023-02-06T03:17:25.891Z,2.15
2023-02-06T03:20:27.950Z,2.15
2023-02-06T03:23:32.061Z,1.48
2023-02-06T03:26:33.890Z,2.22
2023-02-06T03:29:36.539Z,1.92
2023-02-06T03:32:41.403Z,1.85
2023-02-06T03:35:43.084Z,2.00
2023-02-06T03:38:45.668Z,2.28
2023-02-06T03:41:47.206Z,3.22
2023-02-06T03:44:51.230Z,2.47
2023-02-06T03:47:53.304Z,2.90
2023-02-06T03:50:55.204Z,2.42
2023-02-06T03:53:58.477Z,2.30
2023-02-06T03:57:01.310Z,2.65
2023-02-06T04:00:03.174Z,3.20
2023-02-06T04:03:04.771Z,3.38
2023-02-06T04:06:06.090Z,3.95
2023-02-06T04:09:07.377Z,2.70
2023-02-06T04:12:09.158Z,2.50
2023-02-06T04:15:10.844Z,2.63
2023-02-06T04:18:12.097Z,2.45
2023-02-06T04:21:13.369Z,2.33
2023-02-06T04:24:14.710Z,2.90
2023-02-06T04:27:16.753Z,2.22
2023-02-06T04:30:18.254Z,2.50
2023-02-06T04:33:19.660Z,2.95
2023-02-06T04:36:20.928Z,3.05
2023-02-06T04:39:23.356Z,2.28
2023-02-06T04:42:24.630Z,3.08
2023-02-06T04:45:25.935Z,1.88
2023-02-06T04:48:27.187Z,2.42
2023-02-06T04:51:28.504Z,3.20
2023-02-06T04:54:32.578Z,2.80
2023-02-06T04:57:33.994Z,2.70
2023-02-06T05:00:36.199Z,2.80
2023-02-06T05:03:38.591Z,3.22
2023-02-06T05:06:39.953Z,3.53
2023-02-06T05:09:41.201Z,2.10
2023-02-06T05:12:42.498Z,3.42
2023-02-06T05:15:43.770Z,2.13
2023-02-06T05:18:45.382Z,3.05
2023-02-06T05:21:46.696Z,3.17
2023-02-06T05:24:47.948Z,3.10
2023-02-06T05:27:49.275Z,2.55
2023-02-06T05:30:50.827Z,1.45
2023-02-06T05:33:52.749Z,3.47
2023-02-06T05:36:54.158Z,2.35
2023-02-06T05:39:55.406Z,3.30
2023-02-06T05:42:56.639Z,3.10
2023-02-06T05:45:57.882Z,2.47
2023-02-06T05:48:59.373Z,3.05
2023-02-06T05:52:00.808Z,2.83
2023-02-06T05:55:02.093Z,3.47
2023-02-06T05:58:06.075Z,3.42
2023-02-06T06:01:07.574Z,3.22
2023-02-06T06:04:08.888Z,3.30
2023-02-06T06:07:10.555Z,2.75
2023-02-06T06:10:11.840Z,3.38
2023-02-06T06:13:13.097Z,3.10
2023-02-06T06:16:14.438Z,3.22
2023-02-06T06:19:15.903Z,3.35
2023-02-06T06:22:17.164Z,2.78
2023-02-06T06:25:18.491Z,3.22
2023-02-06T06:28:19.838Z,2.63
2023-02-06T06:31:21.236Z,3.60
2023-02-06T06:34:22.538Z,3.30
2023-02-06T06:37:23.798Z,2.90
2023-02-06T06:40:25.062Z,3.50
2023-02-06T06:43:26.715Z,2.70
2023-02-06T06:46:28.045Z,2.28
2023-02-06T06:49:29.324Z,2.75
2023-02-06T06:52:30.603Z,2.95
2023-02-06T06:55:32.006Z,3.15
2023-02-06T06:58:33.562Z,2.97
2023-02-06T07:01:34.845Z,2.70
2023-02-06T07:04:36.108Z,3.97
2023-02-06T07:07:39.300Z,2.15
2023-02-06T07:10:40.634Z,2.72
2023-02-06T07:13:42.272Z,3.45
2023-02-06T07:16:43.896Z,2.72
2023-02-06T07:19:50.658Z,2.92
2023-02-06T07:22:53.598Z,3.03
2023-02-06T07:25:56.580Z,2.83
2023-02-06T07:28:58.049Z,2.78
2023-02-06T07:31:59.445Z,2.85
2023-02-06T07:35:00.732Z,3.35
2023-02-06T07:38:02.056Z,3.10
2023-02-06T07:41:03.414Z,3.70
2023-02-06T07:44:04.823Z,2.45
2023-02-06T07:47:08.499Z,1.90
2023-02-06T07:50:10.258Z,2.92
2023-02-06T07:53:11.671Z,2.17
2023-02-06T07:56:14.394Z,3.08
2023-02-06T07:59:16.023Z,3.22
2023-02-06T08:02:17.315Z,2.83
2023-02-06T08:05:18.830Z,2.83
2023-02-06T08:08:20.117Z,2.72
2023-02-06T08:11:21.846Z,2.90
2023-02-06T08:14:24.019Z,2.75
2023-02-06T08:17:25.397Z,3.03
2023-02-06T08:20:26.679Z,3.30
2023-02-06T08:23:27.984Z,2.85
2023-02-06T08:26:29.615Z,2.80
2023-02-06T08:29:30.901Z,3.35
2023-02-06T08:32:33.434Z,2.60
2023-02-06T08:35:34.998Z,2.42
2023-02-06T08:38:36.769Z,2.45
2023-02-06T08:41:39.024Z,2.47
2023-02-06T08:44:40.325Z,2.95
2023-02-06T08:47:41.771Z,2.63
2023-02-06T08:50:44.202Z,2.60
2023-02-06T08:53:45.518Z,1.75
2023-02-06T08:56:46.865Z,2.13
2023-02-06T08:59:48.230Z,2.60
2023-02-06T09:02:49.547Z,2.50
2023-02-06T09:05:51.600Z,2.50
2023-02-06T09:08:54.570Z,2.97
2023-02-06T09:11:57.554Z,2.50
2023-02-06T09:14:58.867Z,3.08
2023-02-06T09:18:00.125Z,2.88
2023-02-06T09:21:04.244Z,2.90
2023-02-06T09:24:07.301Z,1.83
2023-02-06T09:27:08.601Z,2.38
2023-02-06T09:30:10.237Z,1.95
2023-02-06T09:33:11.559Z,2.58
2023-02-06T09:36:14.292Z,3.00
2023-02-06T09:39:15.800Z,2.60
2023-02-06T09:42:23.586Z,2.95
2023-02-06T09:45:27.135Z,2.67
2023-02-06T09:48:34.319Z,2.03
2023-02-06T09:51:41.756Z,3.05
2023-02-06T09:54:53.107Z,3.42
2023-02-06T09:58:03.262Z,2.70
2023-02-06T10:01:04.521Z,2.15
2023-02-06T10:04:12.993Z,3.58
2023-02-06T10:07:30.851Z,2.45
2023-02-06T10:11:07.580Z,2.67
2023-02-06T10:14:19.178Z,3.22
2023-02-06T10:17:26.563Z,3.22
2023-02-06T10:20:36.102Z,2.55
2023-02-06T10:23:41.350Z,2.97
2023-02-06T10:26:42.649Z,2.78
2023-02-06T10:29:45.351Z,1.27
2023-02-06T10:32:51.494Z,1.75
2023-02-06T10:35:53.096Z,3.25
2023-02-06T10:39:12.859Z,3.20
2023-02-06T10:42:40.449Z,3.17
2023-02-06T10:45:51.982Z,1.95
2023-02-06T10:51:57.691Z,3.05
2023-02-06T10:55:31.406Z,2.00
2023-02-06T10:58:42.686Z,2.20
2023-02-06T11:05:05.668Z,2.33
2023-02-06T11:08:13.204Z,2.00
2023-02-06T11:11:17.346Z,2.08
2023-02-06T11:14:22.395Z,2.10
2023-02-06T11:17:28.108Z,2.13
2023-02-06T11:20:32.006Z,2.25
2023-02-06T11:23:36.286Z,2.03
2023-02-06T11:26:47.942Z,2.05
2023-02-06T11:29:52.047Z,2.03
2023-02-06T11:33:04.741Z,2.05
2023-02-06T11:36:07.718Z,2.08
2023-02-06T11:39:25.971Z,2.05
2023-02-06T11:42:28.354Z,1.38
2023-02-06T11:45:31.436Z,1.80
2023-02-06T11:48:38.089Z,2.30
2023-02-06T11:51:51.344Z,2.15
2023-02-06T11:54:56.893Z,2.00
2023-02-06T11:58:01.457Z,1.73
2023-02-06T12:04:04.395Z,1.35
2023-02-06T12:07:11.716Z,1.98
2023-02-06T12:10:14.142Z,1.52
2023-02-06T12:13:21.006Z,1.55
2023-02-06T12:16:23.230Z,1.65
2023-02-06T12:19:29.901Z,1.90
2023-02-06T12:22:34.979Z,2.10
2023-02-06T12:25:38.402Z,1.77
2023-02-06T12:29:01.046Z,1.75
2023-02-06T12:32:06.342Z,1.88
2023-02-06T12:35:10.469Z,1.65
2023-02-06T12:38:15.246Z,1.70
2023-02-06T12:41:22.563Z,2.05
2023-02-06T12:44:28.584Z,1.63
2023-02-06T12:47:37.077Z,1.95
2023-02-06T12:50:51.279Z,2.10
2023-02-06T12:53:56.577Z,2.08
2023-02-06T12:57:04.805Z,2.03
2023-02-06T13:00:20.321Z,2.10
2023-02-06T13:03:21.630Z,1.80
2023-02-06T13:06:25.135Z,2.08
2023-02-06T13:09:31.086Z,1.83
2023-02-06T13:12:33.055Z,1.90
2023-02-06T13:15:37.631Z,1.58
2023-02-06T13:18:39.126Z,1.98
2023-02-06T13:21:40.372Z,1.35
2023-02-06T13:24:42.584Z,1.80
2023-02-06T13:27:43.921Z,1.55
2023-02-06T13:30:47.318Z,1.77
2023-02-06T13:33:53.563Z,1.80
2023-02-06T13:36:55.066Z,1.83
2023-02-06T13:40:15.171Z,1.60
2023-02-06T13:43:26.202Z,1.50
2023-02-06T13:46:35.998Z,1.60
2023-02-06T13:49:56.027Z,1.63
2023-02-06T13:52:57.332Z,1.50
2023-02-06T13:56:05.900Z,2.08
2023-02-06T13:59:18.225Z,1.70
2023-02-06T14:02:24.861Z,1.52
2023-02-06T14:05:39.858Z,1.70
2023-02-06T14:09:00.015Z,1.63
2023-02-06T14:12:35.291Z,1.55
2023-02-06T14:15:43.601Z,1.70
2023-02-06T14:18:56.653Z,1.63
2023-02-06T14:22:23.064Z,1.75
2023-02-06T14:25:33.658Z,2.65
2023-02-06T14:28:48.590Z,2.03
2023-02-06T14:31:59.251Z,1.73
2023-02-06T14:35:21.572Z,1.73
2023-02-06T14:38:49.224Z,1.92
2023-02-06T14:41:50.516Z,1.92
2023-02-06T14:44:56.979Z,1.92
2023-02-06T14:47:59.492Z,2.22
2023-02-06T14:51:01.092Z,2.80
2023-02-06T14:54:03.810Z,2.80
2023-02-06T14:57:13.497Z,1.70
2023-02-06T15:00:18.906Z,1.33
2023-02-06T15:03:27.054Z,1.35
2023-02-06T15:06:33.292Z,1.67
2023-02-06T15:09:37.686Z,1.83
2023-02-06T15:12:38.975Z,1.48
2023-02-06T15:15:51.564Z,1.90
2023-02-06T15:19:10.955Z,1.23
2023-02-06T15:22:23.534Z,2.78
2023-02-06T15:25:25.771Z,1.70
2023-02-06T15:28:28.835Z,1.55
2023-02-06T15:31:31.029Z,1.80
2023-02-06T15:34:32.394Z,1.73
2023-02-06T15:37:34.946Z,1.67
2023-02-06T15:40:39.017Z,1.48
2023-02-06T15:43:40.714Z,1.42
2023-02-06T15:46:42.600Z,1.33
2023-02-06T15:49:45.341Z,1.30
2023-02-06T15:52:47.477Z,1.60
2023-02-06T15:55:53.761Z,1.48
2023-02-06T15:58:58.140Z,1.35
2023-02-06T16:02:00.001Z,1.65
2023-02-06T16:05:02.125Z,1.60
2023-02-06T16:08:04.774Z,2.25
2023-02-06T16:11:27.639Z,1.75
2023-02-06T16:14:31.946Z,1.70
2023-02-06T16:17:35.090Z,1.90
2023-02-06T16:20:42.117Z,1.95
2023-02-06T16:23:44.622Z,1.20
2023-02-06T16:26:47.155Z,1.63
2023-02-06T16:29:50.198Z,1.85
2023-02-06T16:32:54.621Z,1.90
2023-02-06T16:35:56.537Z,1.80
2023-02-06T16:39:03.984Z,1.65
2023-02-06T16:42:06.375Z,1.60
2023-02-06T16:45:22.360Z,1.67
2023-02-06T16:48:23.753Z,2.30
2023-02-06T16:51:25.925Z,2.38
2023-02-06T16:54:28.664Z,1.42
2023-02-06T16:57:35.009Z,1.25
2023-02-06T17:00:36.564Z,1.52
2023-02-06T17:03:38.400Z,1.60
2023-02-06T17:06:39.671Z,2.15
2023-02-06T17:09:41.383Z,1.52
2023-02-06T17:12:44.333Z,1.25
2023-02-06T17:15:48.944Z,1.65
2023-02-06T17:18:50.831Z,1.58
2023-02-06T17:21:52.135Z,1.83
2023-02-06T17:24:53.446Z,1.52
2023-02-06T17:27:54.844Z,1.52
2023-02-06T17:30:56.419Z,1.42
2023-02-06T17:33:59.237Z,1.75
2023-02-06T17:37:00.710Z,1.90
2023-02-06T17:40:02.136Z,1.48
2023-02-06T17:43:04.589Z,1.33
2023-02-06T17:46:06.315Z,1.48
2023-02-06T17:49:07.659Z,1.70
2023-02-06T17:52:08.990Z,1.50
2023-02-06T17:55:10.287Z,1.52
2023-02-06T17:58:11.591Z,1.75
2023-02-06T18:01:14.237Z,1.80
2023-02-06T18:04:19.535Z,2.25
2023-02-06T18:07:21.454Z,2.22
2023-02-06T18:10:24.228Z,2.58
2023-02-06T18:13:25.836Z,2.75
2023-02-06T18:16:27.885Z,2.08
2023-02-06T18:19:29.624Z,1.23
2023-02-06T18:22:38.082Z,1.77
2023-02-06T18:25:42.520Z,2.42
2023-02-06T18:28:44.659Z,2.13
2023-02-06T18:31:45.976Z,2.92
2023-02-06T18:34:47.721Z,2.65
2023-02-06T18:37:49.963Z,2.40
2023-02-06T18:40:51.326Z,2.10
2023-02-06T18:43:52.588Z,2.35
2023-02-06T18:46:53.934Z,2.13
2023-02-06T18:49:55.340Z,1.77
2023-02-06T18:52:56.689Z,2.28
2023-02-06T18:55:58.748Z,2.85
2023-02-06T18:59:00.097Z,2.53
2023-02-06T19:02:01.813Z,2.78
2023-02-06T19:05:03.549Z,2.92
2023-02-06T19:08:04.937Z,2.67
2023-02-06T19:11:06.485Z,3.58
2023-02-06T19:14:08.815Z,5.40
2023-02-06T19:17:10.093Z,3.97
2023-02-06T19:20:11.955Z,2.08
2023-02-06T19:23:13.244Z,2.05
2023-02-06T19:26:15.737Z,3.13
2023-02-06T19:29:34.422Z,2.22
2023-02-06T19:32:36.549Z,1.88
2023-02-06T19:35:41.189Z,1.95
2023-02-06T19:38:42.794Z,2.05
2023-02-06T19:41:44.203Z,3.20
2023-02-06T19:44:45.786Z,2.42
2023-02-06T19:47:47.093Z,1.95
2023-02-06T19:50:49.348Z,1.42
2023-02-06T19:53:51.270Z,1.63
2023-02-06T19:56:52.566Z,2.15
2023-02-06T19:59:53.897Z,1.30
2023-02-06T20:02:55.203Z,2.50
2023-02-06T20:06:00.052Z,1.63
2023-02-06T20:09:02.446Z,1.15
2023-02-06T20:12:03.833Z,2.00
2023-02-06T20:15:05.279Z,2.05
2023-02-06T20:18:06.606Z,2.42
2023-02-06T20:21:18.965Z,2.53
2023-02-06T20:24:25.036Z,2.57
2023-02-06T20:27:26.592Z,2.15
2023-02-06T20:30:29.808Z,1.65
2023-02-06T20:33:32.617Z,1.40
2023-02-06T20:36:33.975Z,1.05
2023-02-06T20:39:35.359Z,1.63
2023-02-06T20:42:41.976Z,2.05
2023-02-06T20:45:43.364Z,1.85
2023-02-06T20:48:45.665Z,1.35
2023-02-06T20:51:49.046Z,2.72
2023-02-06T20:54:50.333Z,2.15
2023-02-06T20:57:51.737Z,2.00
2023-02-06T21:00:53.373Z,1.50
2023-02-06T21:03:55.693Z,1.90
2023-02-06T21:06:56.993Z,1.67
2023-02-06T21:09:58.290Z,1.65
2023-02-06T21:12:59.649Z,1.55
2023-02-06T21:16:01.201Z,1.60
2023-02-06T21:19:04.545Z,1.73
2023-02-06T21:22:05.974Z,1.63
2023-02-06T21:25:07.365Z,1.83
2023-02-06T21:28:09.122Z,2.33
2023-02-06T21:31:13.738Z,1.60
2023-02-06T21:34:16.814Z,2.10
2023-02-06T21:37:18.539Z,2.22
2023-02-06T21:40:20.813Z,1.27
2023-02-06T21:43:22.116Z,1.65
2023-02-06T21:46:23.543Z,2.08
2023-02-06T21:49:25.120Z,2.85
2023-02-06T21:52:26.434Z,3.13
2023-02-06T21:55:31.367Z,2.45
2023-02-06T21:58:32.800Z,1.88
2023-02-06T22:01:34.374Z,1.65
2023-02-06T22:04:35.721Z,1.50
2023-02-06T22:07:37.455Z,1.77
2023-02-06T22:10:38.745Z,1.58
2023-02-06T22:13:40.858Z,1.52
2023-02-06T22:16:42.224Z,1.52
2023-02-06T22:19:43.536Z,1.58
2023-02-06T22:22:44.880Z,1.60
2023-02-06T22:25:47.759Z,1.70
2023-02-06T22:28:49.212Z,1.48
2023-02-06T22:31:50.557Z,1.25
2023-02-06T22:34:53.785Z,1.63
2023-02-06T22:37:56.305Z,1.55
2023-02-06T22:41:01.629Z,1.50
2023-02-06T22:44:03.008Z,1.52
2023-02-06T22:47:04.364Z,1.92
2023-02-06T22:50:05.874Z,1.33
2023-02-06T22:53:27.400Z,1.85
2023-02-06T22:56:36.013Z,1.83
2023-02-06T22:59:37.342Z,1.20
2023-02-06T23:02:38.758Z,1.63
2023-02-06T23:05:40.273Z,1.17
2023-02-06T23:08:42.265Z,1.50
2023-02-06T23:11:43.599Z,1.98
2023-02-06T23:14:45.016Z,1.73
2023-02-06T23:17:48.784Z,1.50
2023-02-06T23:20:56.874Z,0.98
2023-02-06T23:23:59.910Z,1.55
2023-02-06T23:27:01.215Z,1.52
2023-02-06T23:30:02.535Z,2.08
2023-02-06T23:33:03.865Z,1.10
2023-02-06T23:36:06.443Z,1.33
2023-02-06T23:39:07.754Z,1.20
2023-02-06T23:42:09.007Z,1.58
2023-02-06T23:45:10.598Z,1.67
2023-02-06T23:48:11.879Z,1.73
2023-02-06T23:51:13.250Z,2.05
2023-02-06T23:54:14.525Z,2.33
2023-02-06T23:57:15.869Z,1.40
